sensor_id;sensor_type;location;lat;lon;timestamp;P1;durP1;ratioP1;P2;durP2;ratioP2
24008;SDS011;12217;50.792;4.372;2023-04-20T00:00:21;5.80;;;4.60;;
24008;SDS011;12217;50.792;4.372;2023-04-20T00:02:47;8.75;;;4.85;;
24008;SDS011;12217;50.792;4.372;2023-04-20T00:05:12;5.55;;;4.65;;
24008;SDS011;12217;50.792;4.372;2023-04-20T00:07:38;6.47;;;5.10;;
24008;SDS011;12217;50.792;4.372;2023-04-20T00:10:05;6.88;;;4.70;;
24008;SDS011;12217;50.792;4.372;2023-04-20T00:12:32;6.35;;;4.63;;
24008;SDS011;12217;50.792;4.372;2023-04-20T00:14:58;5.43;;;4.57;;
24008;SDS011;12217;50.792;4.372;2023-04-20T00:17:24;8.25;;;4.65;;
24008;SDS011;12217;50.792;4.372;2023-04-20T00:19:50;8.55;;;4.80;;
24008;SDS011;12217;50.792;4.372;2023-04-20T00:22:15;6.63;;;4.65;;
24008;SDS011;12217;50.792;4.372;2023-04-20T00:24:41;5.80;;;4.65;;
24008;SDS011;12217;50.792;4.372;2023-04-20T00:27:06;7.70;;;5.18;;
24008;SDS011;12217;50.792;4.372;2023-04-20T00:29:32;6.20;;;4.57;;
24008;SDS011;12217;50.792;4.372;2023-04-20T00:31:58;6.38;;;4.93;;
24008;SDS011;12217;50.792;4.372;2023-04-20T00:34:23;7.63;;;4.68;;
24008;SDS011;12217;50.792;4.372;2023-04-20T00:36:49;5.80;;;5.10;;
24008;SDS011;12217;50.792;4.372;2023-04-20T00:39:15;10.38;;;4.80;;
24008;SDS011;12217;50.792;4.372;2023-04-20T00:41:41;7.40;;;5.35;;
24008;SDS011;12217;50.792;4.372;2023-04-20T00:44:06;7.03;;;4.93;;
24008;SDS011;12217;50.792;4.372;2023-04-20T00:46:35;8.05;;;4.68;;
24008;SDS011;12217;50.792;4.372;2023-04-20T00:49:01;6.03;;;4.90;;
24008;SDS011;12217;50.792;4.372;2023-04-20T00:51:27;12.85;;;5.05;;
24008;SDS011;12217;50.792;4.372;2023-04-20T00:53:53;8.57;;;4.68;;
24008;SDS011;12217;50.792;4.372;2023-04-20T00:56:19;5.25;;;4.68;;
24008;SDS011;12217;50.792;4.372;2023-04-20T00:58:44;5.35;;;4.63;;
24008;SDS011;12217;50.792;4.372;2023-04-20T01:01:11;9.27;;;5.10;;
24008;SDS011;12217;50.792;4.372;2023-04-20T01:03:40;7.55;;;5.35;;
24008;SDS011;12217;50.792;4.372;2023-04-20T01:06:05;7.78;;;5.25;;
24008;SDS011;12217;50.792;4.372;2023-04-20T01:08:32;12.90;;;4.68;;
24008;SDS011;12217;50.792;4.372;2023-04-20T01:10:57;6.63;;;4.70;;
24008;SDS011;12217;50.792;4.372;2023-04-20T01:13:23;7.63;;;5.28;;
24008;SDS011;12217;50.792;4.372;2023-04-20T01:15:49;7.07;;;5.03;;
24008;SDS011;12217;50.792;4.372;2023-04-20T01:18:15;10.55;;;4.93;;
24008;SDS011;12217;50.792;4.372;2023-04-20T01:20:42;7.20;;;4.80;;
24008;SDS011;12217;50.792;4.372;2023-04-20T01:23:08;12.63;;;5.18;;
24008;SDS011;12217;50.792;4.372;2023-04-20T01:25:34;10.57;;;4.90;;
24008;SDS011;12217;50.792;4.372;2023-04-20T01:28:00;7.95;;;4.90;;
24008;SDS011;12217;50.792;4.372;2023-04-20T01:30:26;6.95;;;5.00;;
24008;SDS011;12217;50.792;4.372;2023-04-20T01:32:52;6.65;;;5.30;;
24008;SDS011;12217;50.792;4.372;2023-04-20T01:35:19;5.50;;;4.78;;
24008;SDS011;12217;50.792;4.372;2023-04-20T01:37:44;7.20;;;4.97;;
24008;SDS011;12217;50.792;4.372;2023-04-20T01:40:11;7.03;;;4.50;;
24008;SDS011;12217;50.792;4.372;2023-04-20T01:42:38;8.88;;;5.18;;
24008;SDS011;12217;50.792;4.372;2023-04-20T01:45:07;7.72;;;4.90;;
24008;SDS011;12217;50.792;4.372;2023-04-20T01:47:33;8.65;;;5.05;;
24008;SDS011;12217;50.792;4.372;2023-04-20T01:49:59;5.38;;;4.70;;
24008;SDS011;12217;50.792;4.372;2023-04-20T01:52:25;7.75;;;5.30;;
24008;SDS011;12217;50.792;4.372;2023-04-20T01:54:50;8.15;;;4.97;;
24008;SDS011;12217;50.792;4.372;2023-04-20T01:57:16;10.35;;;5.72;;
24008;SDS011;12217;50.792;4.372;2023-04-20T01:59:42;5.85;;;4.88;;
24008;SDS011;12217;50.792;4.372;2023-04-20T02:02:07;6.13;;;4.70;;
24008;SDS011;12217;50.792;4.372;2023-04-20T02:04:33;9.75;;;5.32;;
24008;SDS011;12217;50.792;4.372;2023-04-20T02:06:58;6.53;;;4.85;;
24008;SDS011;12217;50.792;4.372;2023-04-20T02:09:24;6.18;;;5.07;;
24008;SDS011;12217;50.792;4.372;2023-04-20T02:11:49;7.43;;;5.70;;
24008;SDS011;12217;50.792;4.372;2023-04-20T02:14:15;8.38;;;5.03;;
24008;SDS011;12217;50.792;4.372;2023-04-20T02:16:41;7.43;;;4.93;;
24008;SDS011;12217;50.792;4.372;2023-04-20T02:19:06;10.43;;;5.00;;
24008;SDS011;12217;50.792;4.372;2023-04-20T02:21:32;9.60;;;5.10;;
24008;SDS011;12217;50.792;4.372;2023-04-20T02:23:58;6.53;;;4.90;;
24008;SDS011;12217;50.792;4.372;2023-04-20T02:26:24;6.93;;;4.75;;
24008;SDS011;12217;50.792;4.372;2023-04-20T02:28:50;7.90;;;5.00;;
24008;SDS011;12217;50.792;4.372;2023-04-20T02:31:16;8.60;;;5.20;;
24008;SDS011;12217;50.792;4.372;2023-04-20T02:33:41;5.85;;;5.00;;
24008;SDS011;12217;50.792;4.372;2023-04-20T02:36:08;7.05;;;4.75;;
24008;SDS011;12217;50.792;4.372;2023-04-20T02:38:33;7.53;;;5.13;;
24008;SDS011;12217;50.792;4.372;2023-04-20T02:40:59;6.43;;;4.85;;
24008;SDS011;12217;50.792;4.372;2023-04-20T02:43:25;8.75;;;4.82;;
24008;SDS011;12217;50.792;4.372;2023-04-20T02:45:50;7.35;;;4.95;;
24008;SDS011;12217;50.792;4.372;2023-04-20T02:48:16;8.80;;;5.07;;
24008;SDS011;12217;50.792;4.372;2023-04-20T02:50:42;6.03;;;4.97;;
24008;SDS011;12217;50.792;4.372;2023-04-20T02:53:08;12.30;;;5.40;;
24008;SDS011;12217;50.792;4.372;2023-04-20T02:55:33;12.05;;;5.55;;
24008;SDS011;12217;50.792;4.372;2023-04-20T02:57:59;5.25;;;4.68;;
24008;SDS011;12217;50.792;4.372;2023-04-20T03:00:25;5.57;;;4.85;;
24008;SDS011;12217;50.792;4.372;2023-04-20T03:02:50;5.68;;;4.43;;
24008;SDS011;12217;50.792;4.372;2023-04-20T03:05:16;5.10;;;4.60;;
24008;SDS011;12217;50.792;4.372;2023-04-20T03:07:41;7.18;;;4.85;;
24008;SDS011;12217;50.792;4.372;2023-04-20T03:10:07;6.10;;;4.68;;
24008;SDS011;12217;50.792;4.372;2023-04-20T03:12:33;7.00;;;4.93;;
24008;SDS011;12217;50.792;4.372;2023-04-20T03:14:59;5.97;;;4.82;;
24008;SDS011;12217;50.792;4.372;2023-04-20T03:17:25;7.18;;;4.43;;
24008;SDS011;12217;50.792;4.372;2023-04-20T03:19:51;6.95;;;4.85;;
24008;SDS011;12217;50.792;4.372;2023-04-20T03:22:16;9.13;;;4.80;;
24008;SDS011;12217;50.792;4.372;2023-04-20T03:24:43;9.40;;;4.85;;
24008;SDS011;12217;50.792;4.372;2023-04-20T03:27:09;6.95;;;4.88;;
24008;SDS011;12217;50.792;4.372;2023-04-20T03:29:35;5.90;;;4.55;;
24008;SDS011;12217;50.792;4.372;2023-04-20T03:32:00;7.85;;;4.78;;
24008;SDS011;12217;50.792;4.372;2023-04-20T03:34:26;8.98;;;5.28;;
24008;SDS011;12217;50.792;4.372;2023-04-20T03:36:51;7.20;;;4.70;;
24008;SDS011;12217;50.792;4.372;2023-04-20T03:39:17;6.15;;;4.80;;
24008;SDS011;12217;50.792;4.372;2023-04-20T03:41:43;11.48;;;5.05;;
24008;SDS011;12217;50.792;4.372;2023-04-20T03:44:08;9.68;;;4.40;;
24008;SDS011;12217;50.792;4.372;2023-04-20T03:46:34;5.38;;;4.80;;
24008;SDS011;12217;50.792;4.372;2023-04-20T03:49:00;6.32;;;4.60;;
24008;SDS011;12217;50.792;4.372;2023-04-20T03:51:25;8.80;;;4.72;;
24008;SDS011;12217;50.792;4.372;2023-04-20T03:53:51;6.07;;;4.53;;
24008;SDS011;12217;50.792;4.372;2023-04-20T03:56:17;5.03;;;4.53;;
24008;SDS011;12217;50.792;4.372;2023-04-20T03:58:42;6.72;;;4.50;;
24008;SDS011;12217;50.792;4.372;2023-04-20T04:01:08;7.32;;;4.40;;
24008;SDS011;12217;50.792;4.372;2023-04-20T04:03:34;4.95;;;4.20;;
24008;SDS011;12217;50.792;4.372;2023-04-20T04:06:01;5.97;;;4.68;;
24008;SDS011;12217;50.792;4.372;2023-04-20T04:08:27;5.78;;;4.50;;
24008;SDS011;12217;50.792;4.372;2023-04-20T04:10:53;6.50;;;4.93;;
24008;SDS011;12217;50.792;4.372;2023-04-20T04:13:19;7.93;;;3.90;;
24008;SDS011;12217;50.792;4.372;2023-04-20T04:15:45;7.55;;;4.47;;
24008;SDS011;12217;50.792;4.372;2023-04-20T04:18:10;8.43;;;4.57;;
24008;SDS011;12217;50.792;4.372;2023-04-20T04:20:36;7.65;;;4.60;;
24008;SDS011;12217;50.792;4.372;2023-04-20T04:23:01;6.88;;;4.35;;
24008;SDS011;12217;50.792;4.372;2023-04-20T04:25:27;7.57;;;4.53;;
24008;SDS011;12217;50.792;4.372;2023-04-20T04:27:53;5.90;;;4.10;;
24008;SDS011;12217;50.792;4.372;2023-04-20T04:30:19;6.80;;;4.20;;
24008;SDS011;12217;50.792;4.372;2023-04-20T04:32:45;5.15;;;4.25;;
24008;SDS011;12217;50.792;4.372;2023-04-20T04:35:10;5.88;;;4.35;;
24008;SDS011;12217;50.792;4.372;2023-04-20T04:37:37;6.95;;;4.20;;
24008;SDS011;12217;50.792;4.372;2023-04-20T04:40:03;8.15;;;5.00;;
24008;SDS011;12217;50.792;4.372;2023-04-20T04:42:31;9.75;;;4.32;;
24008;SDS011;12217;50.792;4.372;2023-04-20T04:45:00;6.47;;;4.60;;
24008;SDS011;12217;50.792;4.372;2023-04-20T04:47:28;8.43;;;4.82;;
24008;SDS011;12217;50.792;4.372;2023-04-20T04:49:58;7.22;;;4.22;;
24008;SDS011;12217;50.792;4.372;2023-04-20T04:52:24;15.27;;;4.82;;
24008;SDS011;12217;50.792;4.372;2023-04-20T04:54:51;7.07;;;4.28;;
24008;SDS011;12217;50.792;4.372;2023-04-20T04:57:17;7.00;;;4.18;;
24008;SDS011;12217;50.792;4.372;2023-04-20T04:59:42;7.00;;;4.15;;
24008;SDS011;12217;50.792;4.372;2023-04-20T05:02:08;9.25;;;4.00;;
24008;SDS011;12217;50.792;4.372;2023-04-20T05:04:33;7.28;;;4.90;;
24008;SDS011;12217;50.792;4.372;2023-04-20T05:06:59;6.28;;;4.50;;
24008;SDS011;12217;50.792;4.372;2023-04-20T05:09:25;9.02;;;4.40;;
24008;SDS011;12217;50.792;4.372;2023-04-20T05:11:57;6.82;;;4.63;;
24008;SDS011;12217;50.792;4.372;2023-04-20T05:14:23;7.30;;;5.03;;
24008;SDS011;12217;50.792;4.372;2023-04-20T05:16:49;7.72;;;4.80;;
24008;SDS011;12217;50.792;4.372;2023-04-20T05:19:15;6.90;;;4.57;;
24008;SDS011;12217;50.792;4.372;2023-04-20T05:21:40;7.75;;;4.78;;
24008;SDS011;12217;50.792;4.372;2023-04-20T05:24:06;11.48;;;4.63;;
24008;SDS011;12217;50.792;4.372;2023-04-20T05:26:31;7.68;;;5.18;;
24008;SDS011;12217;50.792;4.372;2023-04-20T05:28:57;8.50;;;4.47;;
24008;SDS011;12217;50.792;4.372;2023-04-20T05:31:23;9.73;;;4.95;;
24008;SDS011;12217;50.792;4.372;2023-04-20T05:33:48;9.50;;;4.78;;
24008;SDS011;12217;50.792;4.372;2023-04-20T05:36:14;7.38;;;4.22;;
24008;SDS011;12217;50.792;4.372;2023-04-20T05:38:40;7.40;;;4.10;;
24008;SDS011;12217;50.792;4.372;2023-04-20T05:41:05;6.80;;;4.85;;
24008;SDS011;12217;50.792;4.372;2023-04-20T05:43:31;8.70;;;4.55;;
24008;SDS011;12217;50.792;4.372;2023-04-20T05:45:57;11.00;;;4.78;;
24008;SDS011;12217;50.792;4.372;2023-04-20T05:48:22;5.70;;;4.75;;
24008;SDS011;12217;50.792;4.372;2023-04-20T05:50:50;7.50;;;4.63;;
24008;SDS011;12217;50.792;4.372;2023-04-20T05:53:15;8.35;;;4.70;;
24008;SDS011;12217;50.792;4.372;2023-04-20T05:55:41;8.52;;;4.78;;
24008;SDS011;12217;50.792;4.372;2023-04-20T05:58:06;9.85;;;4.60;;
24008;SDS011;12217;50.792;4.372;2023-04-20T06:00:32;5.78;;;4.85;;
24008;SDS011;12217;50.792;4.372;2023-04-20T06:02:58;8.75;;;4.78;;
24008;SDS011;12217;50.792;4.372;2023-04-20T06:05:23;13.63;;;4.78;;
24008;SDS011;12217;50.792;4.372;2023-04-20T06:07:49;6.05;;;4.68;;
24008;SDS011;12217;50.792;4.372;2023-04-20T06:10:14;10.88;;;4.70;;
24008;SDS011;12217;50.792;4.372;2023-04-20T06:12:40;6.45;;;4.95;;
24008;SDS011;12217;50.792;4.372;2023-04-20T06:15:06;6.35;;;4.80;;
24008;SDS011;12217;50.792;4.372;2023-04-20T06:17:34;6.88;;;4.85;;
24008;SDS011;12217;50.792;4.372;2023-04-20T06:20:05;7.72;;;5.43;;
24008;SDS011;12217;50.792;4.372;2023-04-20T06:22:31;8.50;;;5.03;;
24008;SDS011;12217;50.792;4.372;2023-04-20T06:24:58;8.85;;;5.20;;
24008;SDS011;12217;50.792;4.372;2023-04-20T06:27:24;7.03;;;5.30;;
24008;SDS011;12217;50.792;4.372;2023-04-20T06:29:50;6.95;;;4.82;;
24008;SDS011;12217;50.792;4.372;2023-04-20T06:32:16;7.55;;;4.95;;
24008;SDS011;12217;50.792;4.372;2023-04-20T06:34:41;7.63;;;5.35;;
24008;SDS011;12217;50.792;4.372;2023-04-20T06:37:07;7.82;;;5.38;;
24008;SDS011;12217;50.792;4.372;2023-04-20T06:39:33;6.60;;;5.05;;
24008;SDS011;12217;50.792;4.372;2023-04-20T06:42:00;14.32;;;9.38;;
24008;SDS011;12217;50.792;4.372;2023-04-20T06:44:26;8.93;;;6.43;;
24008;SDS011;12217;50.792;4.372;2023-04-20T06:46:52;7.88;;;5.78;;
24008;SDS011;12217;50.792;4.372;2023-04-20T06:49:17;7.47;;;5.65;;
24008;SDS011;12217;50.792;4.372;2023-04-20T06:51:43;9.43;;;6.38;;
24008;SDS011;12217;50.792;4.372;2023-04-20T06:54:08;12.05;;;6.63;;
24008;SDS011;12217;50.792;4.372;2023-04-20T06:56:34;10.98;;;6.10;;
24008;SDS011;12217;50.792;4.372;2023-04-20T06:59:00;8.93;;;6.38;;
24008;SDS011;12217;50.792;4.372;2023-04-20T07:01:25;8.23;;;6.25;;
24008;SDS011;12217;50.792;4.372;2023-04-20T07:03:51;9.43;;;6.60;;
24008;SDS011;12217;50.792;4.372;2023-04-20T07:06:16;10.30;;;6.20;;
24008;SDS011;12217;50.792;4.372;2023-04-20T07:08:42;9.90;;;6.57;;
24008;SDS011;12217;50.792;4.372;2023-04-20T07:11:07;10.13;;;6.38;;
24008;SDS011;12217;50.792;4.372;2023-04-20T07:13:33;11.93;;;6.90;;
24008;SDS011;12217;50.792;4.372;2023-04-20T07:15:59;11.15;;;6.93;;
24008;SDS011;12217;50.792;4.372;2023-04-20T07:18:24;10.27;;;7.00;;
24008;SDS011;12217;50.792;4.372;2023-04-20T07:20:51;9.20;;;6.97;;
24008;SDS011;12217;50.792;4.372;2023-04-20T07:23:16;13.15;;;6.72;;
24008;SDS011;12217;50.792;4.372;2023-04-20T07:25:42;9.82;;;7.03;;
24008;SDS011;12217;50.792;4.372;2023-04-20T07:28:07;11.48;;;7.07;;
24008;SDS011;12217;50.792;4.372;2023-04-20T07:30:33;9.23;;;7.25;;
24008;SDS011;12217;50.792;4.372;2023-04-20T07:32:59;10.52;;;7.28;;
24008;SDS011;12217;50.792;4.372;2023-04-20T07:35:24;8.90;;;7.13;;
24008;SDS011;12217;50.792;4.372;2023-04-20T07:37:50;10.40;;;7.03;;
24008;SDS011;12217;50.792;4.372;2023-04-20T07:40:15;8.40;;;6.95;;
24008;SDS011;12217;50.792;4.372;2023-04-20T07:42:41;11.43;;;7.45;;
24008;SDS011;12217;50.792;4.372;2023-04-20T07:45:07;11.00;;;6.97;;
24008;SDS011;12217;50.792;4.372;2023-04-20T07:47:34;8.70;;;7.10;;
24008;SDS011;12217;50.792;4.372;2023-04-20T07:50:00;10.38;;;7.00;;
24008;SDS011;12217;50.792;4.372;2023-04-20T07:52:26;8.90;;;7.43;;
24008;SDS011;12217;50.792;4.372;2023-04-20T07:54:52;10.20;;;7.60;;
24008;SDS011;12217;50.792;4.372;2023-04-20T07:57:18;9.90;;;7.43;;
24008;SDS011;12217;50.792;4.372;2023-04-20T07:59:45;9.98;;;7.82;;
24008;SDS011;12217;50.792;4.372;2023-04-20T08:02:10;8.63;;;7.63;;
24008;SDS011;12217;50.792;4.372;2023-04-20T08:04:39;10.85;;;7.40;;
24008;SDS011;12217;50.792;4.372;2023-04-20T08:07:05;10.00;;;6.72;;
24008;SDS011;12217;50.792;4.372;2023-04-20T08:09:30;10.05;;;7.53;;
24008;SDS011;12217;50.792;4.372;2023-04-20T08:11:56;10.10;;;7.55;;
24008;SDS011;12217;50.792;4.372;2023-04-20T08:14:21;11.07;;;7.00;;
24008;SDS011;12217;50.792;4.372;2023-04-20T08:16:47;13.30;;;7.45;;
24008;SDS011;12217;50.792;4.372;2023-04-20T08:19:13;10.32;;;7.53;;
24008;SDS011;12217;50.792;4.372;2023-04-20T08:21:39;9.00;;;7.13;;
24008;SDS011;12217;50.792;4.372;2023-04-20T08:24:05;10.10;;;7.22;;
24008;SDS011;12217;50.792;4.372;2023-04-20T08:26:32;11.93;;;7.57;;
24008;SDS011;12217;50.792;4.372;2023-04-20T08:28:58;9.88;;;8.10;;
24008;SDS011;12217;50.792;4.372;2023-04-20T08:31:25;9.93;;;7.57;;
24008;SDS011;12217;50.792;4.372;2023-04-20T08:33:51;10.95;;;7.95;;
24008;SDS011;12217;50.792;4.372;2023-04-20T08:36:17;8.40;;;7.60;;
24008;SDS011;12217;50.792;4.372;2023-04-20T08:38:43;8.52;;;7.38;;
24008;SDS011;12217;50.792;4.372;2023-04-20T08:41:09;8.07;;;7.15;;
24008;SDS011;12217;50.792;4.372;2023-04-20T08:43:37;11.00;;;7.70;;
24008;SDS011;12217;50.792;4.372;2023-04-20T08:46:03;8.68;;;7.65;;
24008;SDS011;12217;50.792;4.372;2023-04-20T08:48:36;9.43;;;7.28;;
24008;SDS011;12217;50.792;4.372;2023-04-20T08:51:05;11.80;;;7.22;;
24008;SDS011;12217;50.792;4.372;2023-04-20T08:53:31;10.52;;;7.75;;
24008;SDS011;12217;50.792;4.372;2023-04-20T08:55:57;7.93;;;7.22;;
24008;SDS011;12217;50.792;4.372;2023-04-20T08:58:23;12.25;;;7.28;;
24008;SDS011;12217;50.792;4.372;2023-04-20T09:00:53;9.63;;;7.22;;
24008;SDS011;12217;50.792;4.372;2023-04-20T09:03:29;8.68;;;7.22;;
24008;SDS011;12217;50.792;4.372;2023-04-20T09:05:58;11.02;;;7.43;;
24008;SDS011;12217;50.792;4.372;2023-04-20T09:08:37;8.38;;;7.22;;
24008;SDS011;12217;50.792;4.372;2023-04-20T09:11:04;11.25;;;7.22;;
24008;SDS011;12217;50.792;4.372;2023-04-20T09:13:30;12.25;;;7.90;;
24008;SDS011;12217;50.792;4.372;2023-04-20T09:15:56;10.82;;;7.43;;
24008;SDS011;12217;50.792;4.372;2023-04-20T09:18:22;10.00;;;7.88;;
24008;SDS011;12217;50.792;4.372;2023-04-20T09:20:49;10.52;;;7.55;;
24008;SDS011;12217;50.792;4.372;2023-04-20T09:23:15;10.85;;;7.80;;
24008;SDS011;12217;50.792;4.372;2023-04-20T09:25:43;14.88;;;7.75;;
24008;SDS011;12217;50.792;4.372;2023-04-20T09:28:11;10.02;;;8.10;;
24008;SDS011;12217;50.792;4.372;2023-04-20T09:33:04;12.32;;;7.95;;
24008;SDS011;12217;50.792;4.372;2023-04-20T09:35:32;10.32;;;7.75;;
24008;SDS011;12217;50.792;4.372;2023-04-20T09:37:58;14.57;;;8.18;;
24008;SDS011;12217;50.792;4.372;2023-04-20T09:40:24;13.60;;;8.75;;
24008;SDS011;12217;50.792;4.372;2023-04-20T09:42:54;10.23;;;7.70;;
24008;SDS011;12217;50.792;4.372;2023-04-20T09:45:27;9.07;;;7.43;;
24008;SDS011;12217;50.792;4.372;2023-04-20T09:47:52;9.70;;;7.00;;
24008;SDS011;12217;50.792;4.372;2023-04-20T09:50:19;7.90;;;7.10;;
24008;SDS011;12217;50.792;4.372;2023-04-20T09:52:46;7.90;;;6.85;;
24008;SDS011;12217;50.792;4.372;2023-04-20T09:55:13;9.60;;;6.47;;
24008;SDS011;12217;50.792;4.372;2023-04-20T09:57:39;10.50;;;6.80;;
24008;SDS011;12217;50.792;4.372;2023-04-20T10:00:06;10.00;;;7.70;;
24008;SDS011;12217;50.792;4.372;2023-04-20T10:02:34;9.73;;;6.97;;
24008;SDS011;12217;50.792;4.372;2023-04-20T10:05:01;8.80;;;7.50;;
24008;SDS011;12217;50.792;4.372;2023-04-20T10:07:28;10.35;;;7.20;;
24008;SDS011;12217;50.792;4.372;2023-04-20T10:14:55;10.05;;;7.50;;
24008;SDS011;12217;50.792;4.372;2023-04-20T10:17:31;8.68;;;7.15;;
24008;SDS011;12217;50.792;4.372;2023-04-20T10:19:58;8.55;;;6.97;;
24008;SDS011;12217;50.792;4.372;2023-04-20T10:22:31;9.68;;;6.72;;
24008;SDS011;12217;50.792;4.372;2023-04-20T10:25:00;9.25;;;7.05;;
24008;SDS011;12217;50.792;4.372;2023-04-20T10:27:38;7.32;;;6.60;;
24008;SDS011;12217;50.792;4.372;2023-04-20T10:30:11;8.13;;;7.25;;
24008;SDS011;12217;50.792;4.372;2023-04-20T10:32:37;8.60;;;6.43;;
24008;SDS011;12217;50.792;4.372;2023-04-20T10:35:03;8.32;;;6.80;;
24008;SDS011;12217;50.792;4.372;2023-04-20T10:37:34;9.95;;;6.50;;
24008;SDS011;12217;50.792;4.372;2023-04-20T10:40:00;9.25;;;6.43;;
24008;SDS011;12217;50.792;4.372;2023-04-20T10:42:26;6.40;;;5.72;;
24008;SDS011;12217;50.792;4.372;2023-04-20T10:44:53;6.95;;;6.25;;
24008;SDS011;12217;50.792;4.372;2023-04-20T10:47:26;7.38;;;6.47;;
24008;SDS011;12217;50.792;4.372;2023-04-20T10:49:52;6.38;;;5.72;;
24008;SDS011;12217;50.792;4.372;2023-04-20T10:52:31;10.00;;;6.50;;
24008;SDS011;12217;50.792;4.372;2023-04-20T10:54:59;7.70;;;6.45;;
24008;SDS011;12217;50.792;4.372;2023-04-20T10:57:24;8.15;;;6.70;;
24008;SDS011;12217;50.792;4.372;2023-04-20T10:59:50;7.72;;;6.50;;
24008;SDS011;12217;50.792;4.372;2023-04-20T11:02:16;10.07;;;7.35;;
24008;SDS011;12217;50.792;4.372;2023-04-20T11:04:41;8.23;;;6.55;;
24008;SDS011;12217;50.792;4.372;2023-04-20T11:07:08;11.50;;;6.45;;
24008;SDS011;12217;50.792;4.372;2023-04-20T11:09:37;9.60;;;6.55;;
24008;SDS011;12217;50.792;4.372;2023-04-20T11:12:06;7.43;;;6.68;;
24008;SDS011;12217;50.792;4.372;2023-04-20T11:14:35;9.73;;;7.00;;
24008;SDS011;12217;50.792;4.372;2023-04-20T11:17:02;8.30;;;6.82;;
24008;SDS011;12217;50.792;4.372;2023-04-20T11:19:30;10.38;;;6.78;;
24008;SDS011;12217;50.792;4.372;2023-04-20T11:21:57;10.02;;;7.32;;
24008;SDS011;12217;50.792;4.372;2023-04-20T11:26:49;10.30;;;7.20;;
24008;SDS011;12217;50.792;4.372;2023-04-20T11:34:37;7.93;;;7.13;;
24008;SDS011;12217;50.792;4.372;2023-04-20T11:37:04;12.80;;;7.32;;
24008;SDS011;12217;50.792;4.372;2023-04-20T11:39:31;9.88;;;6.97;;
24008;SDS011;12217;50.792;4.372;2023-04-20T11:41:57;8.35;;;7.40;;
24008;SDS011;12217;50.792;4.372;2023-04-20T11:44:23;8.32;;;7.18;;
24008;SDS011;12217;50.792;4.372;2023-04-20T11:46:50;7.65;;;6.95;;
24008;SDS011;12217;50.792;4.372;2023-04-20T11:49:21;7.60;;;6.85;;
24008;SDS011;12217;50.792;4.372;2023-04-20T11:51:48;8.80;;;7.70;;
24008;SDS011;12217;50.792;4.372;2023-04-20T11:54:15;8.55;;;6.85;;
24008;SDS011;12217;50.792;4.372;2023-04-20T11:56:43;10.10;;;7.32;;
24008;SDS011;12217;50.792;4.372;2023-04-20T11:59:09;9.52;;;7.60;;
24008;SDS011;12217;50.792;4.372;2023-04-20T12:01:35;7.60;;;6.80;;
24008;SDS011;12217;50.792;4.372;2023-04-20T12:04:02;8.05;;;6.85;;
24008;SDS011;12217;50.792;4.372;2023-04-20T12:06:28;6.97;;;6.32;;
24008;SDS011;12217;50.792;4.372;2023-04-20T12:08:54;8.05;;;7.00;;
24008;SDS011;12217;50.792;4.372;2023-04-20T12:11:20;7.75;;;6.93;;
24008;SDS011;12217;50.792;4.372;2023-04-20T12:13:46;10.68;;;6.97;;
24008;SDS011;12217;50.792;4.372;2023-04-20T12:16:12;8.02;;;6.45;;
24008;SDS011;12217;50.792;4.372;2023-04-20T12:18:38;8.48;;;6.80;;
24008;SDS011;12217;50.792;4.372;2023-04-20T12:21:03;8.18;;;7.20;;
24008;SDS011;12217;50.792;4.372;2023-04-20T12:26:05;8.13;;;7.32;;
24008;SDS011;12217;50.792;4.372;2023-04-20T12:28:31;10.60;;;7.60;;
24008;SDS011;12217;50.792;4.372;2023-04-20T12:30:57;8.55;;;7.75;;
24008;SDS011;12217;50.792;4.372;2023-04-20T12:33:22;8.35;;;7.55;;
24008;SDS011;12217;50.792;4.372;2023-04-20T12:35:48;10.10;;;8.00;;
24008;SDS011;12217;50.792;4.372;2023-04-20T12:38:14;8.50;;;7.70;;
24008;SDS011;12217;50.792;4.372;2023-04-20T12:40:40;10.95;;;8.52;;
24008;SDS011;12217;50.792;4.372;2023-04-20T12:43:05;8.93;;;7.97;;
24008;SDS011;12217;50.792;4.372;2023-04-20T12:45:31;10.20;;;8.95;;
24008;SDS011;12217;50.792;4.372;2023-04-20T12:47:57;10.20;;;8.40;;
24008;SDS011;12217;50.792;4.372;2023-04-20T12:50:23;9.80;;;8.40;;
24008;SDS011;12217;50.792;4.372;2023-04-20T12:52:49;10.95;;;9.80;;
24008;SDS011;12217;50.792;4.372;2023-04-20T12:55:23;10.70;;;8.98;;
24008;SDS011;12217;50.792;4.372;2023-04-20T12:57:50;9.25;;;7.90;;
24008;SDS011;12217;50.792;4.372;2023-04-20T13:00:15;9.38;;;8.45;;
24008;SDS011;12217;50.792;4.372;2023-04-20T13:02:41;8.27;;;7.47;;
24008;SDS011;12217;50.792;4.372;2023-04-20T13:05:07;13.13;;;8.18;;
24008;SDS011;12217;50.792;4.372;2023-04-20T13:07:33;10.43;;;8.63;;
24008;SDS011;12217;50.792;4.372;2023-04-20T13:09:59;9.13;;;8.05;;
24008;SDS011;12217;50.792;4.372;2023-04-20T13:12:25;9.20;;;7.97;;
24008;SDS011;12217;50.792;4.372;2023-04-20T13:14:50;9.30;;;8.40;;
24008;SDS011;12217;50.792;4.372;2023-04-20T13:17:16;9.65;;;8.15;;
24008;SDS011;12217;50.792;4.372;2023-04-20T13:19:44;10.02;;;9.02;;
24008;SDS011;12217;50.792;4.372;2023-04-20T13:22:10;10.85;;;8.25;;
24008;SDS011;12217;50.792;4.372;2023-04-20T13:24:36;9.57;;;7.90;;
24008;SDS011;12217;50.792;4.372;2023-04-20T13:27:02;9.85;;;8.95;;
24008;SDS011;12217;50.792;4.372;2023-04-20T13:29:28;11.00;;;9.90;;
24008;SDS011;12217;50.792;4.372;2023-04-20T13:31:54;15.00;;;13.45;;
24008;SDS011;12217;50.792;4.372;2023-04-20T13:34:20;17.90;;;15.85;;
24008;SDS011;12217;50.792;4.372;2023-04-20T13:36:45;12.48;;;11.27;;
24008;SDS011;12217;50.792;4.372;2023-04-20T13:39:11;12.52;;;11.35;;
24008;SDS011;12217;50.792;4.372;2023-04-20T13:41:37;12.45;;;11.18;;
24008;SDS011;12217;50.792;4.372;2023-04-20T13:44:03;12.23;;;11.02;;
24008;SDS011;12217;50.792;4.372;2023-04-20T13:46:30;11.75;;;10.60;;
24008;SDS011;12217;50.792;4.372;2023-04-20T13:48:56;13.32;;;11.90;;
24008;SDS011;12217;50.792;4.372;2023-04-20T13:51:22;14.18;;;12.77;;
24008;SDS011;12217;50.792;4.372;2023-04-20T13:53:48;15.18;;;13.05;;
24008;SDS011;12217;50.792;4.372;2023-04-20T13:56:14;15.90;;;14.25;;
24008;SDS011;12217;50.792;4.372;2023-04-20T13:58:40;19.20;;;15.15;;
24008;SDS011;12217;50.792;4.372;2023-04-20T14:01:07;15.13;;;13.57;;
24008;SDS011;12217;50.792;4.372;2023-04-20T14:03:33;16.52;;;14.05;;
24008;SDS011;12217;50.792;4.372;2023-04-20T14:05:58;17.05;;;15.38;;
24008;SDS011;12217;50.792;4.372;2023-04-20T14:08:24;16.08;;;14.52;;
24008;SDS011;12217;50.792;4.372;2023-04-20T14:10:50;15.13;;;13.73;;
24008;SDS011;12217;50.792;4.372;2023-04-20T14:13:15;13.65;;;12.30;;
24008;SDS011;12217;50.792;4.372;2023-04-20T14:15:41;14.05;;;12.18;;
24008;SDS011;12217;50.792;4.372;2023-04-20T14:18:07;11.90;;;10.80;;
24008;SDS011;12217;50.792;4.372;2023-04-20T14:20:32;11.43;;;10.20;;
24008;SDS011;12217;50.792;4.372;2023-04-20T14:22:58;9.98;;;9.07;;
24008;SDS011;12217;50.792;4.372;2023-04-20T14:25:24;10.70;;;9.60;;
24008;SDS011;12217;50.792;4.372;2023-04-20T14:27:50;9.80;;;8.88;;
24008;SDS011;12217;50.792;4.372;2023-04-20T14:30:15;9.88;;;8.98;;
24008;SDS011;12217;50.792;4.372;2023-04-20T14:32:51;10.27;;;8.95;;
24008;SDS011;12217;50.792;4.372;2023-04-20T14:35:21;8.52;;;7.72;;
24008;SDS011;12217;50.792;4.372;2023-04-20T14:37:47;9.15;;;8.35;;
24008;SDS011;12217;50.792;4.372;2023-04-20T14:40:12;9.15;;;8.25;;
24008;SDS011;12217;50.792;4.372;2023-04-20T14:42:39;9.13;;;8.23;;
24008;SDS011;12217;50.792;4.372;2023-04-20T14:45:05;8.73;;;8.02;;
24008;SDS011;12217;50.792;4.372;2023-04-20T14:47:32;10.07;;;9.18;;
24008;SDS011;12217;50.792;4.372;2023-04-20T14:49:57;10.43;;;9.32;;
24008;SDS011;12217;50.792;4.372;2023-04-20T14:52:23;10.60;;;9.50;;
24008;SDS011;12217;50.792;4.372;2023-04-20T14:54:49;10.48;;;9.48;;